Time;durP1;ratioP1;P1;durP2;ratioP2;P2;SDS_P1;SDS_P2;PMS_P1;PMS_P2;Temp;Humidity;BMP_temperature;BMP_pressure;BME280_temperature;BME280_humidity;BME280_pressure;Samples;Min_cycle;Max_cycle;Signal;HPM_P1;HPM_P2
2023/07/20 00:00:35;;;;;;;4.27;1.70;;;20.60;81.00;;;;;;5049219;28;20593;-76
2023/07/20 00:03:16;;;;;;;2.43;2.23;;;20.60;80.60;;;;;;5053470;28;20676;-76
2023/07/20 00:05:44;;;;;;;3.78;2.22;;;20.60;79.20;;;;;;5051066;28;20207;-76
2023/07/20 00:08:09;;;;;;;2.45;1.83;;;20.50;79.30;;;;;;5052457;28;20246;-78
2023/07/20 00:10:35;;;;;;;4.37;2.80;;;20.40;79.70;;;;;;5071331;28;20672;-76
2023/07/20 00:13:00;;;;;;;1.97;1.80;;;20.60;80.40;;;;;;5052779;28;20629;-76
2023/07/20 00:15:26;;;;;;;3.77;2.37;;;20.30;80.70;;;;;;5052323;28;20184;-76
2023/07/20 00:17:51;;;;;;;2.20;2.00;;;20.30;80.10;;;;;;5053712;28;20226;-76
2023/07/20 00:20:17;;;;;;;2.47;2.20;;;20.30;80.00;;;;;;5052127;28;20206;-75
2023/07/20 00:22:43;;;;;;;3.03;2.72;;;20.30;79.60;;;;;;5052132;28;20226;-76
2023/07/20 00:25:11;;;;;;;4.50;2.10;;;20.30;78.90;;;;;;5052653;28;20209;-75
2023/07/20 00:27:37;;;;;;;3.00;2.50;;;20.40;77.80;;;;;;5053649;28;20227;-75
2023/07/20 00:30:03;;;;;;;3.97;2.10;;;20.20;76.10;;;;;;5053530;28;20227;-75
2023/07/20 00:32:29;;;;;;;2.40;2.08;;;20.20;75.90;;;;;;5048414;28;20660;-76
2023/07/20 00:34:55;;;;;;;3.23;2.07;;;20.20;77.10;;;;;;5052156;28;20238;-76
2023/07/20 00:37:20;;;;;;;2.90;2.40;;;20.30;75.80;;;;;;5051652;28;20204;-76
2023/07/20 00:39:46;;;;;;;2.50;2.30;;;20.30;75.60;;;;;;5050135;28;20405;-76
2023/07/20 00:42:11;;;;;;;2.43;1.73;;;20.70;76.00;;;;;;5053297;28;20183;-76
2023/07/20 00:44:37;;;;;;;2.47;2.00;;;20.30;75.30;;;;;;5050432;28;20276;-76
2023/07/20 00:47:02;;;;;;;2.00;1.80;;;20.10;74.80;;;;;;5052635;28;20225;-76
2023/07/20 00:49:28;;;;;;;2.57;2.37;;;20.20;74.60;;;;;;5052741;28;20280;-76
2023/07/20 00:51:53;;;;;;;2.47;2.27;;;20.10;75.30;;;;;;5052533;28;20188;-76
2023/07/20 00:54:19;;;;;;;2.50;1.87;;;20.10;75.10;;;;;;5054575;28;20216;-76
2023/07/20 00:56:45;;;;;;;3.23;2.33;;;20.00;75.30;;;;;;5051757;28;20863;-76
2023/07/20 00:59:11;;;;;;;3.38;2.30;;;20.30;76.20;;;;;;5048198;28;20760;-76
2023/07/20 01:01:37;;;;;;;3.07;2.50;;;20.00;76.00;;;;;;5053307;28;20192;-76
2023/07/20 01:04:02;;;;;;;2.50;1.93;;;19.70;76.10;;;;;;5051792;28;20443;-76
2023/07/20 01:06:34;;;;;;;2.87;2.13;;;19.70;76.50;;;;;;5069747;28;20238;-76
2023/07/20 01:09:16;;;;;;;2.40;2.20;;;19.60;76.40;;;;;;5041872;28;20184;-76
2023/07/20 01:11:47;;;;;;;3.00;2.53;;;20.00;77.40;;;;;;5068044;28;20630;-76
2023/07/20 01:14:15;;;;;;;2.50;2.30;;;19.70;77.50;;;;;;5064783;28;20277;-76
2023/07/20 01:16:41;;;;;;;2.50;2.30;;;20.10;80.20;;;;;;5067615;28;20200;-76
2023/07/20 01:19:06;;;;;;;2.60;2.40;;;19.90;79.10;;;;;;5051518;28;21693;-76
2023/07/20 01:21:41;;;;;;;2.90;1.90;;;19.90;79.60;;;;;;5051855;28;20430;-76
2023/07/20 01:24:32;;;;;;;2.30;2.10;;;19.70;79.90;;;;;;5047765;28;20857;-76
2023/07/20 01:27:39;;;;;;;3.40;2.08;;;19.60;80.30;;;;;;5049912;28;20287;-76
2023/07/20 01:30:31;;;;;;;2.33;2.13;;;19.70;80.80;;;;;;5042272;28;20191;-76
2023/07/20 01:32:58;;;;;;;2.38;2.17;;;19.60;82.60;;;;;;5067572;28;20224;-76
2023/07/20 01:35:28;;;;;;;3.20;2.53;;;19.30;87.10;;;;;;5052014;28;20177;-76
2023/07/20 01:37:55;;;;;;;3.17;2.88;;;19.40;89.00;;;;;;5051411;28;20174;-76
2023/07/20 01:40:23;;;;;;;2.83;2.53;;;19.10;87.40;;;;;;5051399;28;20201;-76
2023/07/20 01:42:49;;;;;;;3.65;2.50;;;19.00;87.80;;;;;;5042800;28;20555;-76
2023/07/20 01:45:14;;;;;;;2.60;2.27;;;18.90;88.50;;;;;;5052244;28;20207;-77
2023/07/20 01:47:42;;;;;;;3.50;2.10;;;18.90;88.20;;;;;;5047879;28;20463;-77
2023/07/20 01:50:08;;;;;;;2.20;2.00;;;18.70;88.10;;;;;;5048756;28;20254;-77
2023/07/20 01:52:34;;;;;;;2.35;2.15;;;18.60;89.10;;;;;;5057469;28;20545;-77
2023/07/20 01:54:59;;;;;;;2.30;2.10;;;18.80;89.20;;;;;;5068353;28;20189;-76
2023/07/20 01:57:25;;;;;;;2.83;2.30;;;18.60;89.80;;;;;;5049545;28;20208;-77
2023/07/20 01:59:50;;;;;;;2.93;2.40;;;18.30;90.10;;;;;;5064243;28;20215;-77
2023/07/20 02:02:16;;;;;;;3.47;2.50;;;18.40;90.80;;;;;;5048656;28;20180;-76
2023/07/20 02:04:41;;;;;;;3.30;3.03;;;18.30;91.10;;;;;;5048900;28;20180;-76
2023/07/20 02:07:07;;;;;;;2.43;2.23;;;18.10;91.30;;;;;;5068449;28;20466;-76
2023/07/20 02:09:32;;;;;;;2.67;2.20;;;18.00;91.70;;;;;;5050174;28;20285;-76
2023/07/20 02:11:58;;;;;;;2.63;2.23;;;18.40;92.20;;;;;;5051081;28;20257;-76
2023/07/20 02:14:23;;;;;;;3.63;2.20;;;18.40;92.40;;;;;;5047462;28;20181;-76
2023/07/20 02:16:53;;;;;;;2.90;2.70;;;18.00;92.50;;;;;;5051891;28;20507;-76
2023/07/20 02:19:19;;;;;;;9.45;2.70;;;18.00;92.20;;;;;;5049818;28;20595;-76
2023/07/20 02:21:45;;;;;;;2.70;2.27;;;17.60;92.10;;;;;;5049039;28;20220;-77
2023/07/20 02:24:11;;;;;;;4.20;2.33;;;18.00;92.60;;;;;;5049678;28;20173;-77
2023/07/20 02:26:37;;;;;;;5.13;3.85;;;18.00;92.60;;;;;;5069600;28;20208;-77
2023/07/20 02:29:04;;;;;;;3.67;2.23;;;18.00;92.60;;;;;;5050421;28;20185;-77
2023/07/20 02:31:30;;;;;;;3.42;2.85;;;17.90;92.80;;;;;;5050500;28;20191;-77
2023/07/20 02:33:56;;;;;;;2.43;2.23;;;18.40;93.60;;;;;;5080499;22;20232;-77
2023/07/20 02:36:21;;;;;;;2.80;2.50;;;18.30;93.70;;;;;;5061721;28;20620;-77
2023/07/20 02:38:47;;;;;;;3.07;2.53;;;18.40;93.80;;;;;;5039428;28;20173;-77
2023/07/20 02:41:13;;;;;;;3.00;2.20;;;18.40;93.20;;;;;;5034538;28;20213;-77
2023/07/20 02:43:39;;;;;;;2.17;1.95;;;18.40;93.10;;;;;;5037741;28;20219;-77
2023/07/20 02:46:04;;;;;;;2.90;2.50;;;18.10;93.00;;;;;;5040896;28;20325;-77
2023/07/20 02:48:30;;;;;;;2.87;2.20;;;18.20;93.30;;;;;;5052938;28;20189;-77
2023/07/20 02:50:55;;;;;;;2.70;2.33;;;18.20;93.50;;;;;;5037707;28;20205;-77
2023/07/20 02:53:21;;;;;;;2.80;2.33;;;18.20;93.80;;;;;;5051025;28;20240;-77
2023/07/20 02:55:47;;;;;;;2.87;1.87;;;18.00;94.00;;;;;;5036520;28;20714;-77
2023/07/20 02:58:13;;;;;;;3.10;2.70;;;17.70;93.90;;;;;;5052535;28;20264;-77
2023/07/20 03:00:38;;;;;;;2.40;2.20;;;17.60;94.20;;;;;;5037006;28;20284;-77
2023/07/20 03:03:04;;;;;;;2.63;2.40;;;18.00;94.30;;;;;;5039345;28;20236;-77
2023/07/20 03:05:29;;;;;;;2.27;2.03;;;17.80;94.30;;;;;;5034186;28;20193;-78
2023/07/20 03:07:56;;;;;;;2.10;2.00;;;18.00;94.50;;;;;;5050009;28;20189;-77
2023/07/20 03:10:21;;;;;;;3.63;2.10;;;17.80;94.50;;;;;;5041686;28;20200;-77
2023/07/20 03:12:47;;;;;;;2.23;2.03;;;17.90;94.90;;;;;;5043801;28;20712;-77
2023/07/20 03:15:12;;;;;;;4.50;2.67;;;17.70;95.00;;;;;;5034886;28;20190;-78
2023/07/20 03:17:38;;;;;;;2.30;2.10;;;17.50;94.80;;;;;;5035529;28;20205;-77
2023/07/20 03:20:05;;;;;;;2.53;2.10;;;17.90;94.80;;;;;;5052505;28;20228;-79
2023/07/20 03:22:31;;;;;;;3.05;2.60;;;17.70;94.80;;;;;;5036522;28;20185;-77
2023/07/20 03:24:56;;;;;;;2.80;2.60;;;17.80;94.70;;;;;;5055291;28;20264;-80
2023/07/20 03:27:22;;;;;;;2.63;2.30;;;17.80;95.10;;;;;;5040360;28;20460;-77
2023/07/20 03:29:48;;;;;;;2.37;2.00;;;17.40;94.60;;;;;;5036808;28;20192;-77
2023/07/20 03:32:13;;;;;;;2.37;2.10;;;17.70;95.10;;;;;;5040709;28;20436;-77
2023/07/20 03:34:39;;;;;;;3.20;2.87;;;17.40;95.30;;;;;;5039750;28;20752;-79
2023/07/20 03:37:04;;;;;;;3.10;2.00;;;17.60;95.80;;;;;;5034702;28;20209;-78
2023/07/20 03:39:30;;;;;;;3.80;2.20;;;17.40;95.80;;;;;;5034377;28;20182;-77
2023/07/20 03:41:57;;;;;;;3.70;2.43;;;17.00;95.50;;;;;;5040020;28;20181;-77
2023/07/20 03:44:22;;;;;;;2.47;2.28;;;17.60;95.90;;;;;;5036925;28;20220;-79
2023/07/20 03:46:48;;;;;;;2.30;2.00;;;17.60;96.00;;;;;;5037320;28;20225;-78
2023/07/20 03:49:13;;;;;;;2.33;2.13;;;17.20;95.90;;;;;;5054978;28;20587;-77
2023/07/20 03:51:39;;;;;;;4.37;2.40;;;17.30;96.00;;;;;;5035209;28;20677;-78
2023/07/20 03:54:04;;;;;;;2.30;2.10;;;17.20;96.00;;;;;;5040708;28;20194;-77
2023/07/20 03:56:34;;;;;;;3.30;2.30;;;17.40;96.10;;;;;;5040804;28;20686;-80
2023/07/20 03:58:59;;;;;;;3.15;2.55;;;17.50;96.20;;;;;;5035565;28;20189;-78
2023/07/20 04:01:25;;;;;;;2.83;2.57;;;17.60;96.30;;;;;;5039058;28;20208;-80
2023/07/20 04:03:50;;;;;;;3.03;2.63;;;17.70;96.40;;;;;;5043607;28;20180;-80
2023/07/20 04:06:17;;;;;;;2.60;2.40;;;17.60;96.40;;;;;;5037060;28;20204;-78
2023/07/20 04:08:43;;;;;;;2.80;2.60;;;17.70;96.50;;;;;;5042565;28;20173;-78
2023/07/20 04:11:08;;;;;;;2.40;2.10;;;17.40;96.00;;;;;;5036254;28;20180;-78
2023/07/20 04:13:34;;;;;;;2.33;2.13;;;17.80;96.20;;;;;;5036358;28;20804;-77
2023/07/20 04:16:00;;;;;;;2.70;2.33;;;17.70;96.10;;;;;;5042443;28;20225;-82
2023/07/20 04:18:25;;;;;;;4.17;2.17;;;18.00;96.20;;;;;;5053702;28;20192;-83
2023/07/20 04:20:51;;;;;;;2.57;2.37;;;17.70;95.70;;;;;;5042667;28;20825;-83
2023/07/20 04:23:17;;;;;;;3.00;2.63;;;18.20;95.60;;;;;;5058676;28;20208;-83
2023/07/20 04:25:43;;;;;;;3.80;3.50;;;18.30;95.30;;;;;;5044712;28;20216;-83
2023/07/20 04:28:09;;;;;;;3.30;2.30;;;18.10;94.90;;;;;;5040960;28;20810;-83
2023/07/20 04:30:36;;;;;;;2.40;2.00;;;18.50;94.90;;;;;;5042845;28;20228;-83
2023/07/20 04:33:02;;;;;;;2.72;2.20;;;18.60;94.70;;;;;;5059857;28;20573;-83
2023/07/20 04:35:49;;;;;;;4.88;2.28;;;18.40;94.60;;;;;;5046113;28;20181;-83
2023/07/20 04:38:17;;;;;;;3.35;2.50;;;18.60;95.30;;;;;;5041178;28;20184;-85
2023/07/20 04:40:44;;;;;;;3.05;2.22;;;18.70;94.40;;;;;;5059787;28;20216;-85
2023/07/20 04:43:09;;;;;;;2.50;2.10;;;18.70;94.10;;;;;;5073162;28;20177;-83
2023/07/20 04:45:35;;;;;;;3.30;2.50;;;19.20;94.60;;;;;;5040756;28;20424;-84
2023/07/20 04:48:00;;;;;;;3.23;2.60;;;18.90;94.00;;;;;;5063661;28;20266;-85
2023/07/20 04:50:26;;;;;;;5.57;2.87;;;20.60;94.60;;;;;;5040852;28;20192;-85
2023/07/20 04:52:53;;;;;;;4.90;2.90;;;19.50;93.80;;;;;;5058402;28;20225;-85
2023/07/20 04:55:18;;;;;;;3.17;1.92;;;19.10;93.80;;;;;;5043027;28;20215;-85
2023/07/20 04:57:44;;;;;;;2.87;2.50;;;19.60;93.70;;;;;;5065559;28;20197;-85
2023/07/20 05:00:11;;;;;;;2.50;2.30;;;19.90;93.10;;;;;;5039725;28;20213;-85
2023/07/20 05:02:37;;;;;;;2.78;2.58;;;19.60;92.60;;;;;;5057645;28;20259;-85
2023/07/20 05:05:04;;;;;;;3.10;2.80;;;20.10;92.50;;;;;;5041153;28;20192;-84
2023/07/20 05:07:30;;;;;;;2.92;2.42;;;19.90;92.10;;;;;;5056436;28;20465;-84
2023/07/20 05:09:55;;;;;;;5.70;2.60;;;20.10;91.70;;;;;;5045391;28;20212;-84
2023/07/20 05:12:21;;;;;;;2.60;2.40;;;20.50;91.60;;;;;;5042686;28;20700;-83
2023/07/20 05:14:46;;;;;;;3.40;2.47;;;20.10;91.30;;;;;;5052199;28;20194;-84
2023/07/20 05:17:12;;;;;;;3.67;2.53;;;20.40;91.30;;;;;;5048492;28;20674;-84
2023/07/20 05:19:38;;;;;;;3.43;2.10;;;20.70;91.50;;;;;;5050763;28;20686;-84
2023/07/20 05:22:05;;;;;;;2.73;2.47;;;20.80;91.40;;;;;;5044024;28;20190;-85
2023/07/20 05:24:31;;;;;;;3.93;2.40;;;20.50;90.90;;;;;;5046958;28;20225;-85
2023/07/20 05:26:58;;;;;;;4.37;2.67;;;22.10;91.50;;;;;;5044645;28;20558;-84
2023/07/20 05:29:23;;;;;;;6.50;2.55;;;20.70;91.00;;;;;;5041537;28;20188;-84
2023/07/20 05:31:49;;;;;;;2.67;2.20;;;21.20;90.90;;;;;;5053806;28;20182;-85
2023/07/20 05:34:15;;;;;;;3.53;2.37;;;21.30;90.60;;;;;;5041479;28;20224;-85
2023/07/20 05:36:40;;;;;;;2.30;2.10;;;20.90;90.50;;;;;;5038282;28;20299;-85
2023/07/20 05:39:06;;;;;;;3.50;2.78;;;21.40;90.80;;;;;;5054300;28;20207;-84
2023/07/20 05:41:32;;;;;;;3.63;2.53;;;21.20;90.30;;;;;;5039255;28;20205;-84
2023/07/20 05:43:57;;;;;;;4.30;2.70;;;21.00;90.10;;;;;;5042025;28;20192;-85
2023/07/20 05:46:24;;;;;;;2.57;2.10;;;21.30;89.70;;;;;;5039260;28;20546;-85
2023/07/20 05:48:49;;;;;;;5.35;3.22;;;21.30;89.40;;;;;;5039866;28;20182;-86
2023/07/20 05:51:15;;;;;;;3.27;2.57;;;21.50;90.10;;;;;;5034822;28;20184;-85
2023/07/20 05:53:41;;;;;;;2.50;2.30;;;21.90;89.90;;;;;;5033452;28;21171;-85
2023/07/20 05:56:10;;;;;;;3.37;2.20;;;22.00;88.60;;;;;;5042216;28;20192;-86
2023/07/20 05:58:36;;;;;;;4.30;3.00;;;21.60;87.40;;;;;;5038967;28;20634;-85
2023/07/20 06:01:02;;;;;;;3.87;2.53;;;23.60;89.20;;;;;;5039988;28;20832;-85
2023/07/20 06:03:28;;;;;;;3.80;2.60;;;21.80;86.10;;;;;;5047177;28;20466;-84
2023/07/20 06:05:59;;;;;;;3.30;3.00;;;22.40;85.90;;;;;;5057335;28;20471;-85
2023/07/20 06:08:24;;;;;;;2.63;2.37;;;22.00;84.80;;;;;;5060265;28;20474;-84
2023/07/20 06:10:51;;;;;;;4.30;2.30;;;22.40;84.90;;;;;;5074742;28;20447;-84
2023/07/20 06:13:17;;;;;;;3.60;2.63;;;22.30;84.40;;;;;;5071163;28;20173;-84
2023/07/20 06:15:43;;;;;;;2.37;2.13;;;22.40;84.20;;;;;;5040756;28;21000;-84
2023/07/20 06:18:09;;;;;;;2.93;2.07;;;22.10;84.20;;;;;;5037677;28;20197;-84
2023/07/20 06:20:34;;;;;;;2.23;1.97;;;22.70;84.00;;;;;;5040267;28;20566;-84
2023/07/20 06:23:00;;;;;;;2.93;2.30;;;23.10;83.70;;;;;;5037377;28;20185;-85
2023/07/20 06:25:26;;;;;;;4.00;2.30;;;22.30;82.90;;;;;;5039559;28;20189;-86
2023/07/20 06:27:51;;;;;;;2.83;2.10;;;22.60;83.10;;;;;;5037309;28;20193;-87
2023/07/20 06:30:17;;;;;;;4.03;2.30;;;22.70;82.80;;;;;;5044403;28;20181;-86
2023/07/20 06:32:43;;;;;;;2.90;2.20;;;22.60;81.70;;;;;;5034872;28;20197;-86
2023/07/20 06:35:08;;;;;;;2.07;1.80;;;23.20;83.20;;;;;;5038356;28;20858;-86
2023/07/20 06:37:35;;;;;;;3.13;2.00;;;22.60;82.90;;;;;;5062023;28;20562;-85
2023/07/20 06:40:03;;;;;;;4.57;2.87;;;22.70;82.10;;;;;;5040920;28;20267;-85
2023/07/20 06:42:28;;;;;;;4.03;2.20;;;23.00;82.00;;;;;;5049043;28;20968;-84
2023/07/20 06:44:54;;;;;;;2.47;1.97;;;23.00;81.30;;;;;;5042216;28;20461;-83
2023/07/20 06:47:19;;;;;;;3.50;2.07;;;23.10;82.20;;;;;;5043963;28;20260;-84
2023/07/20 06:49:45;;;;;;;3.07;2.40;;;23.10;81.00;;;;;;5040885;28;20192;-84
2023/07/20 06:52:10;;;;;;;2.90;2.70;;;23.30;80.80;;;;;;5036621;28;20242;-85
2023/07/20 06:54:36;;;;;;;5.47;3.03;;;24.10;81.30;;;;;;5039718;28;20190;-84
2023/07/20 06:57:01;;;;;;;4.37;3.00;;;24.10;79.70;;;;;;5058198;28;20220;-85
2023/07/20 06:59:27;;;;;;;4.53;2.60;;;24.20;79.00;;;;;;5036458;28;20607;-84
2023/07/20 07:01:53;;;;;;;4.20;2.67;;;25.20;78.20;;;;;;5042491;28;20248;-83
2023/07/20 07:04:18;;;;;;;4.60;2.30;;;24.60;76.10;;;;;;5053363;28;20205;-84
2023/07/20 07:06:45;;;;;;;2.50;2.30;;;25.10;76.40;;;;;;5051185;28;20207;-84
2023/07/20 07:09:10;;;;;;;4.30;2.37;;;25.00;75.10;;;;;;5042968;28;20194;-84
2023/07/20 07:11:36;;;;;;;3.83;2.43;;;25.00;74.90;;;;;;5051343;28;20491;-84
2023/07/20 07:14:01;;;;;;;3.40;2.10;;;24.90;75.40;;;;;;5032944;28;20195;-84
2023/07/20 07:16:27;;;;;;;3.07;2.60;;;25.40;73.70;;;;;;5035335;28;20207;-84
2023/07/20 07:18:52;;;;;;;2.90;2.50;;;26.40;71.50;;;;;;5042356;28;20178;-84
2023/07/20 07:21:18;;;;;;;2.87;2.23;;;28.50;67.10;;;;;;5038805;28;20210;-84
2023/07/20 07:23:45;;;;;;;3.30;2.40;;;29.50;60.30;;;;;;5045179;28;20181;-84
2023/07/20 07:26:11;;;;;;;3.50;2.50;;;30.50;57.40;;;;;;5033918;28;20201;-84
2023/07/20 07:28:37;;;;;;;2.50;2.07;;;31.40;54.10;;;;;;5045312;28;21014;-85
2023/07/20 07:31:05;;;;;;;5.20;2.10;;;32.60;50.90;;;;;;5038619;28;20189;-84
2023/07/20 07:33:31;;;;;;;2.90;2.13;;;33.00;48.80;;;;;;5040806;28;20455;-83
2023/07/20 07:35:56;;;;;;;2.70;2.50;;;33.80;47.80;;;;;;5042415;28;20463;-83
2023/07/20 07:38:22;;;;;;;3.47;2.33;;;35.30;45.00;;;;;;5038795;28;20179;-83
2023/07/20 07:40:47;;;;;;;2.90;2.33;;;36.20;42.20;;;;;;5053625;28;20213;-83
2023/07/20 07:43:13;;;;;;;3.40;2.07;;;36.70;41.10;;;;;;5040497;28;20661;-83
2023/07/20 07:45:39;;;;;;;3.30;2.40;;;37.20;38.50;;;;;;5037594;28;20240;-84
2023/07/20 07:48:06;;;;;;;2.53;2.30;;;36.20;39.10;;;;;;5039504;28;20439;-84
2023/07/20 07:50:32;;;;;;;3.73;2.30;;;35.40;39.70;;;;;;5033375;28;20460;-85
2023/07/20 07:52:57;;;;;;;4.43;2.80;;;35.50;40.00;;;;;;5040946;28;20538;-84
2023/07/20 07:55:26;;;;;;;2.43;2.23;;;35.90;39.60;;;;;;5036310;28;20475;-84
2023/07/20 07:57:52;;;;;;;3.13;2.87;;;35.20;39.10;;;;;;5041194;28;20598;-84
2023/07/20 08:00:18;;;;;;;2.70;2.40;;;36.30;39.10;;;;;;5040587;28;20463;-85
2023/07/20 08:02:46;;;;;;;2.60;2.37;;;34.90;39.60;;;;;;5054659;28;20445;-83
2023/07/20 08:05:11;;;;;;;3.00;2.53;;;35.40;39.80;;;;;;5041062;28;20492;-83
2023/07/20 08:07:37;;;;;;;2.97;2.63;;;36.00;38.40;;;;;;5042568;28;21091;-83
2023/07/20 08:10:03;;;;;;;3.23;2.70;;;36.00;37.50;;;;;;5062551;28;20241;-83
2023/07/20 08:12:29;;;;;;;2.73;2.20;;;37.10;36.70;;;;;;5043642;28;20650;-83
2023/07/20 08:14:54;;;;;;;2.50;2.23;;;37.80;35.50;;;;;;5041133;28;20436;-84
2023/07/20 08:17:20;;;;;;;2.73;2.23;;;36.70;35.00;;;;;;5044702;28;20210;-84
2023/07/20 08:19:46;;;;;;;2.40;2.20;;;36.50;36.00;;;;;;5037726;28;20217;-84
2023/07/20 08:22:12;;;;;;;2.77;2.57;;;36.70;35.80;;;;;;5054625;28;20186;-84
2023/07/20 08:24:42;;;;;;;5.00;2.33;;;36.40;35.20;;;;;;5039351;28;20451;-83
2023/07/20 08:27:08;;;;;;;2.60;2.00;;;35.50;36.60;;;;;;5055708;28;20505;-84
2023/07/20 08:29:37;;;;;;;3.40;3.10;;;35.00;36.50;;;;;;5059383;28;20940;-85
2023/07/20 08:32:04;;;;;;;2.80;2.10;;;33.60;37.40;;;;;;5025265;28;20451;-84
2023/07/20 08:34:29;;;;;;;3.17;2.40;;;32.60;39.80;;;;;;5040900;28;20526;-80
2023/07/20 08:36:56;;;;;;;2.73;2.20;;;33.10;40.50;;;;;;5035911;28;20545;-84
2023/07/20 08:39:22;;;;;;;2.70;2.40;;;32.40;40.40;;;;;;5035907;28;20365;-84
2023/07/20 08:41:49;;;;;;;2.30;2.10;;;32.20;40.90;;;;;;5037868;28;20530;-85
2023/07/20 08:44:15;;;;;;;5.07;2.57;;;32.50;40.30;;;;;;5035407;28;21010;-84
2023/07/20 08:46:42;;;;;;;3.63;2.37;;;33.50;39.70;;;;;;5042984;28;20525;-85
2023/07/20 08:49:08;;;;;;;8.23;2.67;;;33.50;38.20;;;;;;5039808;28;20444;-86
2023/07/20 08:51:35;;;;;;;3.00;1.90;;;32.30;39.60;;;;;;5038058;28;20464;-85
2023/07/20 08:54:01;;;;;;;3.80;2.43;;;30.70;41.70;;;;;;5037183;28;20445;-85
2023/07/20 08:56:27;;;;;;;2.50;2.17;;;29.60;44.10;;;;;;5048329;28;20543;-85
2023/07/20 08:58:56;;;;;;;4.80;2.50;;;28.70;46.20;;;;;;5019703;28;20199;-84
2023/07/20 09:01:22;;;;;;;2.83;2.60;;;28.20;47.90;;;;;;5035708;28;20466;-82
2023/07/20 09:03:49;;;;;;;2.60;2.40;;;28.10;49.00;;;;;;5062698;28;20449;-83
2023/07/20 09:06:15;;;;;;;2.20;1.87;;;30.10;46.90;;;;;;5037065;28;20649;-83
2023/07/20 09:08:41;;;;;;;6.70;2.60;;;32.00;42.80;;;;;;5039646;28;20494;-84
2023/07/20 09:11:08;;;;;;;3.20;2.20;;;33.30;39.70;;;;;;5061080;28;20443;-85
2023/07/20 09:13:34;;;;;;;3.57;2.23;;;34.90;37.20;;;;;;5041907;28;20185;-84
2023/07/20 09:16:00;;;;;;;2.77;2.00;;;35.90;35.40;;;;;;5038862;28;20468;-84
2023/07/20 09:18:28;;;;;;;3.50;2.50;;;36.50;33.90;;;;;;5045163;28;20498;-84
2023/07/20 09:20:59;;;;;;;2.00;1.90;;;37.90;33.60;;;;;;5036674;28;20476;-85
2023/07/20 09:23:36;;;;;;;2.13;2.03;;;38.40;31.00;;;;;;5066231;28;20494;-84
2023/07/20 09:26:13;;;;;;;3.63;1.93;;;38.20;31.30;;;;;;5049970;28;20554;-84
2023/07/20 09:28:51;;;;;;;2.53;2.00;;;38.10;31.00;;;;;;5038051;28;20517;-84
2023/07/20 09:31:18;;;;;;;2.40;2.03;;;38.30;30.30;;;;;;5041320;28;20436;-84
2023/07/20 09:33:45;;;;;;;2.67;2.43;;;39.20;30.30;;;;;;5055297;28;20459;-85
2023/07/20 09:36:13;;;;;;;3.93;2.50;;;37.90;31.10;;;;;;5060601;28;20483;-84
2023/07/20 09:38:43;;;;;;;3.90;2.30;;;37.10;32.10;;;;;;5044999;28;20470;-84
2023/07/20 09:41:13;;;;;;;3.07;1.87;;;37.20;32.40;;;;;;5057186;28;20552;-83
2023/07/20 09:43:39;;;;;;;2.63;2.27;;;37.00;32.50;;;;;;5050557;28;20514;-85
2023/07/20 09:46:05;;;;;;;4.20;2.03;;;35.70;33.40;;;;;;5037057;28;21092;-86
2023/07/20 09:48:31;;;;;;;2.30;1.93;;;34.40;34.40;;;;;;5020898;28;20451;-86
2023/07/20 09:50:57;;;;;;;2.63;2.43;;;32.90;35.50;;;;;;5034680;28;20188;-86
2023/07/20 09:53:25;;;;;;;3.20;1.83;;;32.00;36.80;;;;;;5051584;28;20571;-84
2023/07/20 09:55:51;;;;;;;2.37;1.80;;;33.80;37.00;;;;;;5042791;28;20551;-84
2023/07/20 09:58:17;;;;;;;2.47;2.27;;;34.40;35.60;;;;;;5041825;28;20877;-85
2023/07/20 10:00:46;;;;;;;2.03;1.60;;;35.40;34.10;;;;;;5037574;28;20469;-84
2023/07/20 10:03:17;;;;;;;2.27;1.80;;;36.10;33.50;;;;;;5055913;28;20862;-84
2023/07/20 10:05:48;;;;;;;3.23;2.27;;;37.00;32.00;;;;;;5054360;28;20467;-84
2023/07/20 10:08:16;;;;;;;1.90;1.80;;;36.80;31.30;;;;;;5050527;28;20444;-84
2023/07/20 10:10:45;;;;;;;3.00;2.23;;;36.00;31.80;;;;;;5034770;28;20444;-84
2023/07/20 10:13:18;;;;;;;2.23;2.03;;;34.50;33.70;;;;;;5047343;28;20554;-84
2023/07/20 10:15:50;;;;;;;2.27;2.07;;;33.20;35.10;;;;;;5036530;28;20459;-84
2023/07/20 10:18:25;;;;;;;2.70;2.23;;;32.30;36.30;;;;;;5057174;28;20446;-84
2023/07/20 10:20:54;;;;;;;2.37;2.17;;;31.20;38.10;;;;;;5047284;28;20460;-83
2023/07/20 10:23:21;;;;;;;2.30;2.00;;;30.50;39.10;;;;;;5044457;28;20452;-84
2023/07/20 10:25:48;;;;;;;1.87;1.70;;;29.60;40.20;;;;;;5041537;28;20837;-85
2023/07/20 10:28:14;;;;;;;2.93;2.00;;;29.10;41.10;;;;;;5039590;28;20454;-85
2023/07/20 10:30:40;;;;;;;2.63;2.03;;;28.80;41.80;;;;;;5043791;28;20567;-84
2023/07/20 10:33:06;;;;;;;1.90;1.80;;;29.70;42.70;;;;;;5035026;28;20552;-84
2023/07/20 10:35:51;;;;;;;2.60;2.40;;;28.60;42.60;;;;;;5039102;28;20816;-84
2023/07/20 10:38:16;;;;;;;2.37;2.20;;;28.70;42.90;;;;;;5059147;28;20466;-84
2023/07/20 10:40:42;;;;;;;2.00;1.80;;;28.20;43.20;;;;;;5038394;28;20840;-84
2023/07/20 10:43:09;;;;;;;2.10;1.90;;;28.90;43.60;;;;;;5037840;28;20679;-84
2023/07/20 10:45:53;;;;;;;1.90;1.73;;;27.70;44.00;;;;;;5039650;28;20190;-83
2023/07/20 10:48:20;;;;;;;2.53;1.83;;;27.30;43.80;;;;;;5039527;28;20500;-83
2023/07/20 10:51:20;;;;;;;2.53;2.33;;;27.50;44.70;;;;;;5054539;28;20535;-84
2023/07/20 10:53:47;;;;;;;13.23;12.13;;;27.00;45.00;;;;;;5039272;28;20440;-83
2023/07/20 10:56:23;;;;;;;3.83;1.70;;;27.80;45.10;;;;;;5039404;28;20459;-83
2023/07/20 10:58:49;;;;;;;2.30;2.10;;;26.80;45.40;;;;;;5053525;28;20492;-84
2023/07/20 11:01:17;;;;;;;1.87;1.73;;;28.10;44.70;;;;;;5045561;28;20508;-84
2023/07/20 11:03:50;;;;;;;2.03;1.83;;;27.40;43.80;;;;;;5038225;28;20281;-84
2023/07/20 11:06:25;;;;;;;2.97;1.67;;;28.30;42.70;;;;;;5053520;28;20993;-85
2023/07/20 11:09:10;;;;;;;6.47;5.90;;;29.00;41.30;;;;;;5054847;28;20492;-84
2023/07/20 11:11:38;;;;;;;6.27;5.70;;;30.70;39.10;;;;;;5065639;28;20803;-82
2023/07/20 11:14:09;;;;;;;2.10;1.40;;;32.60;37.00;;;;;;5064354;28;20463;-82
2023/07/20 11:16:43;;;;;;;1.93;1.73;;;33.70;33.90;;;;;;5058337;28;20463;-82
2023/07/20 11:19:25;;;;;;;3.03;2.80;;;32.40;33.60;;;;;;5062519;28;20456;-82
2023/07/20 11:21:53;;;;;;;2.97;2.00;;;31.80;35.60;;;;;;5046439;28;20894;-82
2023/07/20 11:24:19;;;;;;;2.03;1.83;;;31.10;35.10;;;;;;5059791;28;20438;-82
2023/07/20 11:26:47;;;;;;;1.33;1.23;;;30.20;36.60;;;;;;5048313;28;20461;-82
2023/07/20 11:29:13;;;;;;;2.37;1.80;;;30.60;36.50;;;;;;5061051;28;20446;-82
2023/07/20 11:31:43;;;;;;;1.70;1.60;;;31.60;35.60;;;;;;5046535;28;20530;-83
2023/07/20 11:34:16;;;;;;;2.10;1.93;;;31.30;36.30;;;;;;5049567;28;20492;-82
2023/07/20 11:36:44;;;;;;;4.10;3.80;;;30.80;35.90;;;;;;5044299;28;20551;-82
2023/07/20 11:39:10;;;;;;;1.67;1.50;;;30.70;36.10;;;;;;5051574;28;20446;-84
2023/07/20 11:41:36;;;;;;;2.03;1.60;;;30.00;37.10;;;;;;5052226;28;20529;-84
2023/07/20 11:44:02;;;;;;;3.90;3.60;;;29.70;37.70;;;;;;5052640;28;20446;-85
2023/07/20 11:46:29;;;;;;;2.47;1.97;;;29.30;38.90;;;;;;5046784;28;20215;-85
2023/07/20 11:49:01;;;;;;;1.60;1.50;;;30.10;38.70;;;;;;5061193;28;20427;-85
2023/07/20 11:51:28;;;;;;;2.00;1.40;;;29.30;37.80;;;;;;5054859;28;20530;-85
2023/07/20 11:53:55;;;;;;;5.83;2.00;;;28.90;39.50;;;;;;5051891;28;20446;-85
2023/07/20 11:56:20;;;;;;;4.13;3.83;;;29.40;39.00;;;;;;5057124;28;20505;-86
2023/07/20 11:58:46;;;;;;;1.57;1.47;;;30.40;38.60;;;;;;5046977;28;20450;-85
2023/07/20 12:01:13;;;;;;;1.73;1.60;;;29.90;38.30;;;;;;5077534;28;20214;-85
2023/07/20 12:03:39;;;;;;;2.50;1.97;;;28.80;38.60;;;;;;5057124;28;20505;-85
2023/07/20 12:06:08;;;;;;;2.97;1.60;;;29.40;39.10;;;;;;5055553;28;20471;-86
2023/07/20 12:08:34;;;;;;;12.70;3.10;;;29.30;38.20;;;;;;5052274;28;20447;-85
2023/07/20 12:11:00;;;;;;;2.07;1.87;;;28.90;38.10;;;;;;5052708;28;20455;-85
2023/07/20 12:13:40;;;;;;;2.50;2.10;;;28.60;38.50;;;;;;5060272;28;20191;-86
2023/07/20 12:16:15;;;;;;;2.50;1.80;;;28.30;39.60;;;;;;5063865;28;20483;-84
2023/07/20 12:18:44;;;;;;;2.33;2.07;;;28.20;39.30;;;;;;5040144;28;21009;-84
2023/07/20 12:21:10;;;;;;;4.37;1.80;;;28.30;39.60;;;;;;5059734;28;20479;-85
2023/07/20 12:23:42;;;;;;;1.50;1.40;;;28.20;39.30;;;;;;5046010;28;20534;-85
2023/07/20 12:26:11;;;;;;;3.40;2.20;;;28.00;39.30;;;;;;5059145;28;20465;-85
2023/07/20 12:28:40;;;;;;;3.50;1.80;;;28.60;40.30;;;;;;5054499;28;20491;-85
2023/07/20 12:31:07;;;;;;;2.70;1.60;;;27.70;40.50;;;;;;5038240;28;20933;-85
2023/07/20 12:33:33;;;;;;;2.70;2.00;;;28.10;40.00;;;;;;5038814;28;20561;-86
2023/07/20 12:36:01;;;;;;;2.27;1.70;;;27.80;40.20;;;;;;5039349;28;20464;-85
2023/07/20 12:38:28;;;;;;;2.60;1.70;;;28.60;41.10;;;;;;5042772;28;20190;-85
2023/07/20 12:40:55;;;;;;;1.57;1.40;;;28.20;40.90;;;;;;5045779;28;20493;-88
2023/07/20 12:43:21;;;;;;;6.50;1.77;;;27.90;41.20;;;;;;5041447;28;20443;-84
2023/07/20 12:45:46;;;;;;;2.10;1.67;;;27.80;41.50;;;;;;5043171;28;20861;-81